HKMO

Mombasa Moi International Airport

Mombasa, Kenya
METAR HKMO 171400Z 09008KT 9999 FEW0267 30/24 Q1010 NOSIG
Observed Flight Rules
Dec-17 @ 14:00 UTC (30 minutes ago)
Wind Visibility
90° at 8 knots 10,000+ meters
Temperatures Readings
Current 30°C / 86°F
Dewpoint 24°C / 75°F
Humidity 70%
Altimeter 29.82" Hg
Pressure 1010 hPa
Elevation 55
METAR HKMO 171400Z 09008KT 9999 FEW0267 30/24 Q1010 NOSIG
Observed Flight Rules
Dec-17 @ 14:00 UTC
(30 minutes ago)
Wind Visibility
90° at 8 knots 10,000+ meters
Temperature Dewpoint
30°C / 86°F 24°C / 75°F
Humidity Altimeter Pressure
70% 29.82" Hg 1010 hPa